sensor_id;sensor_type;location;lat;lon;timestamp;temperature;humidity
3156;DHT22;1588;50.892;7.082;2023-04-21T00:02:24;7.60;99.90
3156;DHT22;1588;50.892;7.082;2023-04-21T00:07:27;7.60;99.90
3156;DHT22;1588;50.892;7.082;2023-04-21T00:12:32;7.60;99.90
3156;DHT22;1588;50.892;7.082;2023-04-21T00:17:34;7.50;99.90
3156;DHT22;1588;50.892;7.082;2023-04-21T00:22:36;7.50;99.90
3156;DHT22;1588;50.892;7.082;2023-04-21T00:27:43;7.50;99.90
3156;DHT22;1588;50.892;7.082;2023-04-21T00:32:45;7.50;99.90
3156;DHT22;1588;50.892;7.082;2023-04-21T00:37:47;7.50;99.90
3156;DHT22;1588;50.892;7.082;2023-04-21T00:42:52;7.40;99.90
3156;DHT22;1588;50.892;7.082;2023-04-21T00:47:54;7.40;99.90
3156;DHT22;1588;50.892;7.082;2023-04-21T00:52:56;7.40;99.90
3156;DHT22;1588;50.892;7.082;2023-04-21T00:58:02;7.30;99.90
3156;DHT22;1588;50.892;7.082;2023-04-21T01:03:05;7.40;99.90
3156;DHT22;1588;50.892;7.082;2023-04-21T01:08:07;7.50;99.90
3156;DHT22;1588;50.892;7.082;2023-04-21T01:13:12;7.50;99.90
3156;DHT22;1588;50.892;7.082;2023-04-21T01:18:14;7.40;99.90
3156;DHT22;1588;50.892;7.082;2023-04-21T01:23:19;7.40;99.90
3156;DHT22;1588;50.892;7.082;2023-04-21T01:28:22;7.40;99.90
3156;DHT22;1588;50.892;7.082;2023-04-21T01:33:24;7.40;99.90
3156;DHT22;1588;50.892;7.082;2023-04-21T01:38:28;7.40;99.90
3156;DHT22;1588;50.892;7.082;2023-04-21T01:43:30;7.40;99.90
3156;DHT22;1588;50.892;7.082;2023-04-21T01:48:33;7.30;99.90
3156;DHT22;1588;50.892;7.082;2023-04-21T01:53:38;7.40;99.90
3156;DHT22;1588;50.892;7.082;2023-04-21T01:58:41;7.40;99.90
3156;DHT22;1588;50.892;7.082;2023-04-21T02:03:43;7.30;99.90
3156;DHT22;1588;50.892;7.082;2023-04-21T02:08:47;7.40;99.90
3156;DHT22;1588;50.892;7.082;2023-04-21T02:13:49;7.30;99.90
3156;DHT22;1588;50.892;7.082;2023-04-21T02:18:52;7.30;99.90
3156;DHT22;1588;50.892;7.082;2023-04-21T02:23:56;7.20;99.90
3156;DHT22;1588;50.892;7.082;2023-04-21T02:28:58;7.10;99.90
3156;DHT22;1588;50.892;7.082;2023-04-21T02:34:01;7.10;99.90
3156;DHT22;1588;50.892;7.082;2023-04-21T02:39:05;6.90;99.90
3156;DHT22;1588;50.892;7.082;2023-04-21T02:44:07;6.80;99.90
3156;DHT22;1588;50.892;7.082;2023-04-21T02:49:10;6.80;99.90
3156;DHT22;1588;50.892;7.082;2023-04-21T02:54:14;6.60;99.90
3156;DHT22;1588;50.892;7.082;2023-04-21T02:59:16;6.60;99.90
3156;DHT22;1588;50.892;7.082;2023-04-21T03:04:18;6.50;99.90
3156;DHT22;1588;50.892;7.082;2023-04-21T03:09:36;6.40;99.90
3156;DHT22;1588;50.892;7.082;2023-04-21T03:14:39;6.20;99.90
3156;DHT22;1588;50.892;7.082;2023-04-21T03:19:42;6.10;99.90
3156;DHT22;1588;50.892;7.082;2023-04-21T03:24:46;6.00;99.90
3156;DHT22;1588;50.892;7.082;2023-04-21T03:29:48;5.90;99.90
3156;DHT22;1588;50.892;7.082;2023-04-21T03:34:50;5.80;99.90
3156;DHT22;1588;50.892;7.082;2023-04-21T03:39:54;5.70;99.90
3156;DHT22;1588;50.892;7.082;2023-04-21T03:45:00;5.60;99.90
3156;DHT22;1588;50.892;7.082;2023-04-21T03:50:05;5.60;99.90
3156;DHT22;1588;50.892;7.082;2023-04-21T03:55:09;5.50;99.90
3156;DHT22;1588;50.892;7.082;2023-04-21T04:00:12;5.40;99.90
3156;DHT22;1588;50.892;7.082;2023-04-21T04:05:17;5.40;99.90
3156;DHT22;1588;50.892;7.082;2023-04-21T04:10:21;5.30;99.90
3156;DHT22;1588;50.892;7.082;2023-04-21T04:15:23;5.20;99.90
3156;DHT22;1588;50.892;7.082;2023-04-21T04:20:26;5.20;99.90
3156;DHT22;1588;50.892;7.082;2023-04-21T04:25:30;5.20;99.90
3156;DHT22;1588;50.892;7.082;2023-04-21T04:30:33;5.10;99.90
3156;DHT22;1588;50.892;7.082;2023-04-21T04:35:35;5.10;99.90
3156;DHT22;1588;50.892;7.082;2023-04-21T04:40:39;5.10;99.90
3156;DHT22;1588;50.892;7.082;2023-04-21T04:45:42;5.10;99.90
3156;DHT22;1588;50.892;7.082;2023-04-21T04:50:45;5.20;99.90
3156;DHT22;1588;50.892;7.082;2023-04-21T04:55:49;5.30;99.90
3156;DHT22;1588;50.892;7.082;2023-04-21T05:00:51;5.30;99.90
3156;DHT22;1588;50.892;7.082;2023-04-21T05:05:53;5.40;99.90
3156;DHT22;1588;50.892;7.082;2023-04-21T05:11:01;5.50;99.90
3156;DHT22;1588;50.892;7.082;2023-04-21T05:16:04;5.60;99.90
3156;DHT22;1588;50.892;7.082;2023-04-21T05:21:06;5.60;99.90
3156;DHT22;1588;50.892;7.082;2023-04-21T05:26:10;5.50;99.90
3156;DHT22;1588;50.892;7.082;2023-04-21T05:31:12;5.50;99.90
3156;DHT22;1588;50.892;7.082;2023-04-21T05:36:17;5.50;99.90
3156;DHT22;1588;50.892;7.082;2023-04-21T05:41:23;5.50;99.90
3156;DHT22;1588;50.892;7.082;2023-04-21T05:46:25;5.60;99.90
3156;DHT22;1588;50.892;7.082;2023-04-21T05:51:28;5.70;99.90
3156;DHT22;1588;50.892;7.082;2023-04-21T05:56:33;5.80;99.90
3156;DHT22;1588;50.892;7.082;2023-04-21T06:01:36;6.00;99.90
3156;DHT22;1588;50.892;7.082;2023-04-21T06:06:41;6.00;99.90
3156;DHT22;1588;50.892;7.082;2023-04-21T06:11:45;6.20;99.90
3156;DHT22;1588;50.892;7.082;2023-04-21T06:16:47;6.60;99.90
3156;DHT22;1588;50.892;7.082;2023-04-21T06:21:50;6.90;99.90
3156;DHT22;1588;50.892;7.082;2023-04-21T06:26:54;6.90;99.90
3156;DHT22;1588;50.892;7.082;2023-04-21T06:31:56;7.20;99.90
3156;DHT22;1588;50.892;7.082;2023-04-21T06:36:58;7.30;99.90
3156;DHT22;1588;50.892;7.082;2023-04-21T06:42:02;7.70;99.90
3156;DHT22;1588;50.892;7.082;2023-04-21T06:47:05;8.20;99.90
3156;DHT22;1588;50.892;7.082;2023-04-21T06:52:08;8.70;99.90
3156;DHT22;1588;50.892;7.082;2023-04-21T06:57:12;9.30;99.90
3156;DHT22;1588;50.892;7.082;2023-04-21T07:02:17;9.30;99.90
3156;DHT22;1588;50.892;7.082;2023-04-21T07:07:19;9.50;99.90
3156;DHT22;1588;50.892;7.082;2023-04-21T07:12:23;9.70;99.90
3156;DHT22;1588;50.892;7.082;2023-04-21T07:17:26;9.80;99.90
3156;DHT22;1588;50.892;7.082;2023-04-21T07:22:28;10.50;99.90
3156;DHT22;1588;50.892;7.082;2023-04-21T07:27:33;11.50;99.90
3156;DHT22;1588;50.892;7.082;2023-04-21T07:32:37;11.60;99.90
3156;DHT22;1588;50.892;7.082;2023-04-21T07:37:39;12.30;99.90
3156;DHT22;1588;50.892;7.082;2023-04-21T07:42:43;12.50;99.90
3156;DHT22;1588;50.892;7.082;2023-04-21T07:47:46;12.50;99.90
3156;DHT22;1588;50.892;7.082;2023-04-21T07:52:49;12.20;99.90
3156;DHT22;1588;50.892;7.082;2023-04-21T07:57:53;12.00;99.90
3156;DHT22;1588;50.892;7.082;2023-04-21T08:02:58;11.70;99.90
3156;DHT22;1588;50.892;7.082;2023-04-21T08:08:01;11.40;99.90
3156;DHT22;1588;50.892;7.082;2023-04-21T08:13:06;11.40;99.90
3156;DHT22;1588;50.892;7.082;2023-04-21T08:18:09;11.30;99.90
3156;DHT22;1588;50.892;7.082;2023-04-21T08:23:11;11.30;99.90
3156;DHT22;1588;50.892;7.082;2023-04-21T08:28:15;11.70;99.90
3156;DHT22;1588;50.892;7.082;2023-04-21T08:33:23;11.60;99.90
3156;DHT22;1588;50.892;7.082;2023-04-21T08:38:25;13.30;99.90
3156;DHT22;1588;50.892;7.082;2023-04-21T08:43:29;13.20;99.90
3156;DHT22;1588;50.892;7.082;2023-04-21T08:48:35;12.80;99.90
3156;DHT22;1588;50.892;7.082;2023-04-21T08:53:40;13.20;99.90
3156;DHT22;1588;50.892;7.082;2023-04-21T08:58:44;14.50;99.90
3156;DHT22;1588;50.892;7.082;2023-04-21T09:03:47;14.50;99.90
3156;DHT22;1588;50.892;7.082;2023-04-21T09:08:53;14.60;99.90
3156;DHT22;1588;50.892;7.082;2023-04-21T09:13:58;15.00;99.90
3156;DHT22;1588;50.892;7.082;2023-04-21T09:19:13;16.40;99.90
3156;DHT22;1588;50.892;7.082;2023-04-21T09:24:19;16.50;99.90
3156;DHT22;1588;50.892;7.082;2023-04-21T09:29:24;16.60;99.90
3156;DHT22;1588;50.892;7.082;2023-04-21T09:34:30;16.30;99.90
3156;DHT22;1588;50.892;7.082;2023-04-21T09:39:34;17.70;99.90
3156;DHT22;1588;50.892;7.082;2023-04-21T09:44:39;17.50;99.90
3156;DHT22;1588;50.892;7.082;2023-04-21T09:49:42;17.70;99.90
3156;DHT22;1588;50.892;7.082;2023-04-21T09:54:49;17.20;99.90
3156;DHT22;1588;50.892;7.082;2023-04-21T09:59:59;17.20;99.90
3156;DHT22;1588;50.892;7.082;2023-04-21T10:05:03;17.30;99.90
3156;DHT22;1588;50.892;7.082;2023-04-21T10:10:11;17.00;99.90
3156;DHT22;1588;50.892;7.082;2023-04-21T10:15:40;16.70;99.90
3156;DHT22;1588;50.892;7.082;2023-04-21T10:20:56;16.90;99.90
3156;DHT22;1588;50.892;7.082;2023-04-21T10:26:01;16.80;99.90
3156;DHT22;1588;50.892;7.082;2023-04-21T10:31:25;17.90;99.90
3156;DHT22;1588;50.892;7.082;2023-04-21T10:36:29;18.80;99.90
3156;DHT22;1588;50.892;7.082;2023-04-21T10:41:32;18.70;99.90
3156;DHT22;1588;50.892;7.082;2023-04-21T10:46:43;18.80;99.90
3156;DHT22;1588;50.892;7.082;2023-04-21T10:52:03;19.10;99.90
3156;DHT22;1588;50.892;7.082;2023-04-21T10:57:07;19.20;99.90
3156;DHT22;1588;50.892;7.082;2023-04-21T11:02:18;19.60;99.90
3156;DHT22;1588;50.892;7.082;2023-04-21T11:07:23;19.40;99.90
3156;DHT22;1588;50.892;7.082;2023-04-21T11:12:27;18.50;99.90
3156;DHT22;1588;50.892;7.082;2023-04-21T11:17:32;18.70;99.90
3156;DHT22;1588;50.892;7.082;2023-04-21T11:22:36;18.60;99.90
3156;DHT22;1588;50.892;7.082;2023-04-21T11:27:39;19.40;99.90
3156;DHT22;1588;50.892;7.082;2023-04-21T11:32:44;20.10;99.90
3156;DHT22;1588;50.892;7.082;2023-04-21T11:37:49;19.50;99.90
3156;DHT22;1588;50.892;7.082;2023-04-21T11:42:54;19.10;99.90
3156;DHT22;1588;50.892;7.082;2023-04-21T11:53:25;19.70;99.90
3156;DHT22;1588;50.892;7.082;2023-04-21T11:58:31;18.90;99.90
3156;DHT22;1588;50.892;7.082;2023-04-21T12:03:34;17.90;99.90
3156;DHT22;1588;50.892;7.082;2023-04-21T12:08:39;18.40;99.90
3156;DHT22;1588;50.892;7.082;2023-04-21T12:13:43;17.90;99.90
3156;DHT22;1588;50.892;7.082;2023-04-21T12:18:47;18.30;99.90
3156;DHT22;1588;50.892;7.082;2023-04-21T12:23:52;18.60;99.90
3156;DHT22;1588;50.892;7.082;2023-04-21T12:29:12;18.50;99.90
3156;DHT22;1588;50.892;7.082;2023-04-21T12:34:14;18.40;99.90
3156;DHT22;1588;50.892;7.082;2023-04-21T12:39:22;18.10;99.90
3156;DHT22;1588;50.892;7.082;2023-04-21T12:44:24;18.80;99.90
3156;DHT22;1588;50.892;7.082;2023-04-21T12:49:27;18.50;99.90
3156;DHT22;1588;50.892;7.082;2023-04-21T12:54:31;18.60;99.90
3156;DHT22;1588;50.892;7.082;2023-04-21T12:59:34;18.50;99.90
3156;DHT22;1588;50.892;7.082;2023-04-21T13:04:37;18.40;99.90
3156;DHT22;1588;50.892;7.082;2023-04-21T13:09:43;18.10;99.90
3156;DHT22;1588;50.892;7.082;2023-04-21T13:14:46;18.40;99.90
3156;DHT22;1588;50.892;7.082;2023-04-21T13:19:50;18.00;99.90
3156;DHT22;1588;50.892;7.082;2023-04-21T13:24:57;17.90;99.90
3156;DHT22;1588;50.892;7.082;2023-04-21T13:30:11;18.00;99.90
3156;DHT22;1588;50.892;7.082;2023-04-21T13:35:14;18.20;99.90
3156;DHT22;1588;50.892;7.082;2023-04-21T13:40:20;18.40;99.90
3156;DHT22;1588;50.892;7.082;2023-04-21T13:45:24;18.40;99.90
3156;DHT22;1588;50.892;7.082;2023-04-21T13:50:33;18.60;99.90
3156;DHT22;1588;50.892;7.082;2023-04-21T13:55:40;18.80;99.90
3156;DHT22;1588;50.892;7.082;2023-04-21T14:00:43;18.90;99.90
3156;DHT22;1588;50.892;7.082;2023-04-21T14:05:46;18.70;99.90
3156;DHT22;1588;50.892;7.082;2023-04-21T14:10:50;18.40;99.90
3156;DHT22;1588;50.892;7.082;2023-04-21T14:15:53;18.40;99.90
3156;DHT22;1588;50.892;7.082;2023-04-21T14:20:56;18.00;99.90
3156;DHT22;1588;50.892;7.082;2023-04-21T14:26:01;18.30;99.90
3156;DHT22;1588;50.892;7.082;2023-04-21T14:31:03;19.00;99.90
3156;DHT22;1588;50.892;7.082;2023-04-21T14:36:07;19.00;99.90
3156;DHT22;1588;50.892;7.082;2023-04-21T14:41:12;19.30;99.90
3156;DHT22;1588;50.892;7.082;2023-04-21T14:46:14;19.20;99.90
3156;DHT22;1588;50.892;7.082;2023-04-21T14:51:17;18.80;99.90
3156;DHT22;1588;50.892;7.082;2023-04-21T14:56:23;18.70;99.90
3156;DHT22;1588;50.892;7.082;2023-04-21T15:01:26;18.60;99.90
3156;DHT22;1588;50.892;7.082;2023-04-21T15:06:29;18.90;99.90
3156;DHT22;1588;50.892;7.082;2023-04-21T15:11:35;19.10;99.90
3156;DHT22;1588;50.892;7.082;2023-04-21T15:16:49;18.80;99.90
3156;DHT22;1588;50.892;7.082;2023-04-21T15:22:04;19.10;99.90
3156;DHT22;1588;50.892;7.082;2023-04-21T15:27:08;19.10;99.90
3156;DHT22;1588;50.892;7.082;2023-04-21T15:32:11;18.60;99.90
3156;DHT22;1588;50.892;7.082;2023-04-21T15:37:14;18.40;99.90
3156;DHT22;1588;50.892;7.082;2023-04-21T15:42:26;18.30;99.90
3156;DHT22;1588;50.892;7.082;2023-04-21T15:47:29;18.20;99.90
3156;DHT22;1588;50.892;7.082;2023-04-21T15:52:34;18.10;99.90
3156;DHT22;1588;50.892;7.082;2023-04-21T15:57:39;17.90;99.90
3156;DHT22;1588;50.892;7.082;2023-04-21T16:02:41;17.90;99.90
3156;DHT22;1588;50.892;7.082;2023-04-21T16:07:44;17.90;99.90
3156;DHT22;1588;50.892;7.082;2023-04-21T16:12:48;17.80;99.90
3156;DHT22;1588;50.892;7.082;2023-04-21T16:17:51;17.90;99.90
3156;DHT22;1588;50.892;7.082;2023-04-21T16:22:53;17.90;99.90
3156;DHT22;1588;50.892;7.082;2023-04-21T16:27:57;18.00;99.90
3156;DHT22;1588;50.892;7.082;2023-04-21T16:33:00;18.10;99.90
3156;DHT22;1588;50.892;7.082;2023-04-21T16:38:02;18.10;99.90
3156;DHT22;1588;50.892;7.082;2023-04-21T16:43:07;18.20;99.90
3156;DHT22;1588;50.892;7.082;2023-04-21T16:48:09;18.20;99.90
3156;DHT22;1588;50.892;7.082;2023-04-21T16:53:11;18.40;99.90
3156;DHT22;1588;50.892;7.082;2023-04-21T16:58:15;18.40;99.90
3156;DHT22;1588;50.892;7.082;2023-04-21T17:03:17;18.40;99.90
3156;DHT22;1588;50.892;7.082;2023-04-21T17:08:20;18.40;99.90
3156;DHT22;1588;50.892;7.082;2023-04-21T17:13:23;18.40;99.90
3156;DHT22;1588;50.892;7.082;2023-04-21T17:18:26;18.20;99.90
3156;DHT22;1588;50.892;7.082;2023-04-21T17:23:28;18.10;99.90
3156;DHT22;1588;50.892;7.082;2023-04-21T17:28:32;18.00;99.90
3156;DHT22;1588;50.892;7.082;2023-04-21T17:33:34;17.80;99.90
3156;DHT22;1588;50.892;7.082;2023-04-21T17:38:37;17.80;99.90
3156;DHT22;1588;50.892;7.082;2023-04-21T17:43:41;17.60;99.90
3156;DHT22;1588;50.892;7.082;2023-04-21T17:48:43;17.50;99.90
3156;DHT22;1588;50.892;7.082;2023-04-21T17:53:45;17.30;99.90
3156;DHT22;1588;50.892;7.082;2023-04-21T17:58:49;17.30;99.90
3156;DHT22;1588;50.892;7.082;2023-04-21T18:03:52;17.10;99.90
3156;DHT22;1588;50.892;7.082;2023-04-21T18:08:55;17.00;99.90
3156;DHT22;1588;50.892;7.082;2023-04-21T18:13:59;17.00;99.90
3156;DHT22;1588;50.892;7.082;2023-04-21T18:19:03;16.90;99.90
3156;DHT22;1588;50.892;7.082;2023-04-21T18:24:06;16.70;99.90
3156;DHT22;1588;50.892;7.082;2023-04-21T18:29:10;16.70;99.90
3156;DHT22;1588;50.892;7.082;2023-04-21T18:34:12;16.70;99.90
3156;DHT22;1588;50.892;7.082;2023-04-21T18:39:15;16.40;99.90
3156;DHT22;1588;50.892;7.082;2023-04-21T18:44:19;16.50;99.90
3156;DHT22;1588;50.892;7.082;2023-04-21T18:49:21;16.30;99.90
3156;DHT22;1588;50.892;7.082;2023-04-21T18:54:23;16.20;99.90
3156;DHT22;1588;50.892;7.082;2023-04-21T18:59:27;16.10;99.90
3156;DHT22;1588;50.892;7.082;2023-04-21T19:04:29;15.10;99.90
3156;DHT22;1588;50.892;7.082;2023-04-21T19:09:31;14.60;99.90
3156;DHT22;1588;50.892;7.082;2023-04-21T19:14:35;13.70;99.90
3156;DHT22;1588;50.892;7.082;2023-04-21T19:19:38;13.20;99.90
3156;DHT22;1588;50.892;7.082;2023-04-21T19:24:40;12.90;99.90
3156;DHT22;1588;50.892;7.082;2023-04-21T19:29:43;12.70;99.90
3156;DHT22;1588;50.892;7.082;2023-04-21T19:34:46;12.30;99.90
3156;DHT22;1588;50.892;7.082;2023-04-21T19:39:48;12.50;99.90
3156;DHT22;1588;50.892;7.082;2023-04-21T19:44:52;12.40;99.90
3156;DHT22;1588;50.892;7.082;2023-04-21T19:49:54;12.20;99.90
3156;DHT22;1588;50.892;7.082;2023-04-21T19:54:57;12.20;99.90
3156;DHT22;1588;50.892;7.082;2023-04-21T20:00:00;11.90;99.90
3156;DHT22;1588;50.892;7.082;2023-04-21T20:05:04;11.70;99.90
3156;DHT22;1588;50.892;7.082;2023-04-21T20:10:09;11.80;99.90
3156;DHT22;1588;50.892;7.082;2023-04-21T20:15:15;11.70;99.90
3156;DHT22;1588;50.892;7.082;2023-04-21T20:20:18;11.50;99.90
3156;DHT22;1588;50.892;7.082;2023-04-21T20:25:20;11.30;99.90
3156;DHT22;1588;50.892;7.082;2023-04-21T20:30:24;11.10;99.90
3156;DHT22;1588;50.892;7.082;2023-04-21T20:35:26;10.90;99.90
3156;DHT22;1588;50.892;7.082;2023-04-21T20:40:30;10.80;99.90
3156;DHT22;1588;50.892;7.082;2023-04-21T20:45:34;10.80;99.90
3156;DHT22;1588;50.892;7.082;2023-04-21T20:50:36;10.70;99.90
3156;DHT22;1588;50.892;7.082;2023-04-21T20:55:38;10.60;99.90
3156;DHT22;1588;50.892;7.082;2023-04-21T21:00:42;10.50;99.90
3156;DHT22;1588;50.892;7.082;2023-04-21T21:05:44;10.50;99.90
3156;DHT22;1588;50.892;7.082;2023-04-21T21:10:47;10.40;99.90
3156;DHT22;1588;50.892;7.082;2023-04-21T21:15:51;10.30;99.90
3156;DHT22;1588;50.892;7.082;2023-04-21T21:20:53;10.10;99.90
3156;DHT22;1588;50.892;7.082;2023-04-21T21:25:56;10.00;99.90
3156;DHT22;1588;50.892;7.082;2023-04-21T21:31:01;10.00;99.90
3156;DHT22;1588;50.892;7.082;2023-04-21T21:36:04;9.80;99.90
3156;DHT22;1588;50.892;7.082;2023-04-21T21:41:06;9.80;99.90
3156;DHT22;1588;50.892;7.082;2023-04-21T21:46:12;9.70;99.90
3156;DHT22;1588;50.892;7.082;2023-04-21T21:51:14;9.60;99.90
3156;DHT22;1588;50.892;7.082;2023-04-21T21:56:16;9.50;99.90
3156;DHT22;1588;50.892;7.082;2023-04-21T22:01:20;9.30;99.90
3156;DHT22;1588;50.892;7.082;2023-04-21T22:06:22;9.30;99.90
3156;DHT22;1588;50.892;7.082;2023-04-21T22:11:45;9.40;99.90
3156;DHT22;1588;50.892;7.082;2023-04-21T22:16:48;9.30;99.90
3156;DHT22;1588;50.892;7.082;2023-04-21T22:21:51;9.00;99.90
3156;DHT22;1588;50.892;7.082;2023-04-21T22:26:53;9.00;99.90
3156;DHT22;1588;50.892;7.082;2023-04-21T22:31:57;9.00;99.90
3156;DHT22;1588;50.892;7.082;2023-04-21T22:37:00;9.00;99.90
3156;DHT22;1588;50.892;7.082;2023-04-21T22:42:02;8.80;99.90
3156;DHT22;1588;50.892;7.082;2023-04-21T22:47:06;8.70;99.90
3156;DHT22;1588;50.892;7.082;2023-04-21T22:52:10;8.60;99.90
3156;DHT22;1588;50.892;7.082;2023-04-21T22:57:12;8.50;99.90
3156;DHT22;1588;50.892;7.082;2023-04-21T23:02:16;8.60;99.90
3156;DHT22;1588;50.892;7.082;2023-04-21T23:07:18;8.40;99.90
3156;DHT22;1588;50.892;7.082;2023-04-21T23:12:21;8.40;99.90
3156;DHT22;1588;50.892;7.082;2023-04-21T23:17:24;8.40;99.90
3156;DHT22;1588;50.892;7.082;2023-04-21T23:22:27;8.30;99.90
3156;DHT22;1588;50.892;7.082;2023-04-21T23:27:29;8.40;99.90
3156;DHT22;1588;50.892;7.082;2023-04-21T23:32:33;8.30;99.90
3156;DHT22;1588;50.892;7.082;2023-04-21T23:37:35;8.20;99.90
3156;DHT22;1588;50.892;7.082;2023-04-21T23:42:37;8.30;99.90
3156;DHT22;1588;50.892;7.082;2023-04-21T23:47:41;8.40;99.90
3156;DHT22;1588;50.892;7.082;2023-04-21T23:52:45;8.30;99.90
3156;DHT22;1588;50.892;7.082;2023-04-21T23:57:49;8.20;99.90
